createdAt,value
2017-09-01T00:00:45.519Z,16.30
2017-09-01T00:03:13.859Z,16.20
2017-09-01T00:05:42.172Z,16.30
2017-09-01T00:08:10.506Z,16.20
2017-09-01T00:10:38.823Z,16.20
2017-09-01T00:13:07.147Z,16.20
2017-09-01T00:15:35.458Z,16.20
2017-09-01T00:18:03.789Z,16.20
2017-09-01T00:20:32.092Z,16.20
2017-09-01T00:23:00.417Z,16.10
2017-09-01T00:25:28.722Z,16.10
2017-09-01T00:27:57.030Z,16.10
2017-09-01T00:30:25.349Z,16.10
2017-09-01T00:32:53.649Z,16.10
2017-09-01T00:35:25.058Z,16.10
2017-09-01T00:37:53.364Z,16.10
2017-09-01T00:40:21.685Z,16.10
2017-09-01T00:42:49.995Z,16.00
2017-09-01T00:45:18.357Z,15.90
2017-09-01T00:47:46.671Z,16.00
2017-09-01T00:50:14.991Z,16.00
2017-09-01T00:52:43.307Z,16.00
2017-09-01T00:55:11.642Z,15.90
2017-09-01T00:57:39.955Z,15.90
2017-09-01T01:00:08.264Z,15.90
2017-09-01T01:02:36.620Z,15.90
2017-09-01T01:05:04.948Z,15.80
2017-09-01T01:07:33.359Z,15.80
2017-09-01T01:10:01.822Z,16.00
2017-09-01T01:12:30.176Z,15.90
2017-09-01T01:14:58.523Z,15.80
2017-09-01T01:17:26.906Z,15.90
2017-09-01T01:19:55.211Z,15.70
2017-09-01T01:22:23.557Z,15.60
2017-09-01T01:24:51.869Z,15.60
2017-09-01T01:27:20.221Z,15.40
2017-09-01T01:29:48.558Z,15.00
2017-09-01T01:32:16.909Z,15.10
2017-09-01T01:34:45.227Z,15.20
2017-09-01T01:37:13.538Z,15.30
2017-09-01T01:39:41.878Z,15.30
2017-09-01T01:42:10.202Z,15.30
2017-09-01T01:44:38.562Z,15.20
2017-09-01T01:47:06.889Z,15.30
2017-09-01T01:49:35.240Z,15.20
2017-09-01T01:52:03.562Z,15.20
2017-09-01T01:54:31.911Z,15.10
2017-09-01T01:57:00.231Z,15.10
2017-09-01T01:59:28.570Z,14.90
2017-09-01T02:01:56.900Z,14.90
2017-09-01T02:04:25.260Z,15.00
2017-09-01T02:06:53.606Z,15.10
2017-09-01T02:09:21.994Z,15.10
2017-09-01T02:11:50.314Z,15.10
2017-09-01T02:14:18.650Z,15.00
2017-09-01T02:16:46.970Z,15.00
2017-09-01T02:19:15.271Z,15.10
2017-09-01T02:21:43.649Z,15.00
2017-09-01T02:24:12.074Z,14.90
2017-09-01T02:26:40.462Z,14.90
2017-09-01T02:29:08.839Z,14.90
2017-09-01T02:31:37.174Z,14.90
2017-09-01T02:34:05.490Z,14.90
2017-09-01T02:36:33.833Z,14.90
2017-09-01T02:39:02.150Z,14.90
2017-09-01T02:41:30.506Z,14.90
2017-09-01T02:43:58.835Z,15.00
2017-09-01T02:46:27.158Z,14.90
2017-09-01T02:48:55.493Z,14.90
2017-09-01T02:51:23.813Z,15.00
2017-09-01T02:53:52.155Z,14.90
2017-09-01T02:56:20.477Z,14.90
2017-09-01T02:58:48.830Z,14.80
2017-09-01T03:01:17.152Z,14.90
2017-09-01T03:03:45.511Z,14.80
2017-09-01T03:06:14.752Z,14.70
2017-09-01T03:08:43.099Z,14.70
2017-09-01T03:11:12.433Z,14.60
2017-09-01T03:13:40.778Z,14.60
2017-09-01T03:16:11.042Z,14.60
2017-09-01T03:18:39.369Z,14.60
2017-09-01T03:21:07.740Z,14.60
2017-09-01T03:23:36.048Z,14.50
2017-09-01T03:26:04.399Z,14.50
2017-09-01T03:28:32.712Z,14.50
2017-09-01T03:31:01.057Z,14.60
2017-09-01T03:33:29.361Z,14.60
2017-09-01T03:35:57.702Z,14.60
2017-09-01T03:38:26.033Z,14.50
2017-09-01T03:40:55.368Z,14.50
2017-09-01T03:43:23.738Z,14.50
2017-09-01T03:45:52.080Z,14.40
2017-09-01T03:48:20.436Z,14.40
2017-09-01T03:50:48.777Z,14.40
2017-09-01T03:53:17.102Z,14.50
2017-09-01T03:55:45.496Z,14.40
2017-09-01T03:58:13.831Z,14.40
2017-09-01T04:00:44.186Z,14.30
2017-09-01T04:03:12.541Z,14.30
2017-09-01T04:05:40.873Z,14.30
2017-09-01T04:08:09.371Z,14.40
2017-09-01T04:10:37.694Z,14.30
2017-09-01T04:13:06.016Z,14.20
2017-09-01T04:15:34.328Z,14.10
2017-09-01T04:18:02.668Z,14.10
2017-09-01T04:20:30.969Z,14.00
2017-09-01T04:22:59.297Z,14.10
2017-09-01T04:25:27.633Z,14.10
2017-09-01T04:27:56.002Z,14.10
2017-09-01T04:30:24.316Z,14.00
2017-09-01T04:32:52.653Z,14.10
2017-09-01T04:35:20.957Z,14.10
2017-09-01T04:37:49.276Z,14.00
2017-09-01T04:40:17.603Z,14.00
2017-09-01T04:42:45.932Z,14.00
2017-09-01T04:45:14.286Z,14.10
2017-09-01T04:47:42.639Z,14.10
2017-09-01T04:50:10.979Z,14.10
2017-09-01T04:52:39.284Z,14.00
2017-09-01T04:55:07.613Z,14.00
2017-09-01T04:57:35.940Z,13.90
2017-09-01T05:00:04.287Z,13.90
2017-09-01T05:02:32.602Z,13.90
2017-09-01T05:05:00.903Z,13.90
2017-09-01T05:07:29.993Z,13.90
2017-09-01T05:09:58.289Z,13.90
2017-09-01T05:12:26.623Z,13.80
2017-09-01T05:14:54.920Z,13.90
2017-09-01T05:17:23.252Z,13.90
2017-09-01T05:19:51.566Z,14.00
2017-09-01T05:22:19.901Z,13.90
2017-09-01T05:24:48.215Z,14.00
2017-09-01T05:27:16.645Z,14.00
2017-09-01T05:29:44.965Z,14.10
2017-09-01T05:32:13.356Z,14.10
2017-09-01T05:34:41.675Z,14.00
2017-09-01T05:37:09.993Z,14.00
2017-09-01T05:39:38.354Z,14.00
2017-09-01T05:42:06.658Z,14.00
2017-09-01T05:44:34.986Z,14.00
2017-09-01T05:47:04.005Z,14.10
2017-09-01T05:49:32.317Z,14.10
2017-09-01T05:52:00.627Z,14.20
2017-09-01T05:54:28.944Z,14.20
2017-09-01T05:56:57.249Z,14.10
2017-09-01T05:59:25.576Z,14.10
2017-09-01T06:01:53.881Z,14.10
2017-09-01T06:04:22.216Z,14.10
2017-09-01T06:06:50.524Z,14.10
2017-09-01T06:09:18.862Z,14.10
2017-09-01T06:11:47.176Z,14.10
2017-09-01T06:14:15.495Z,14.30
2017-09-01T06:16:43.838Z,14.30
2017-09-01T06:19:12.157Z,14.30
2017-09-01T06:21:40.516Z,14.30
2017-09-01T06:24:08.846Z,14.40
2017-09-01T06:26:37.177Z,14.40
2017-09-01T06:29:05.484Z,14.40
2017-09-01T06:31:33.816Z,14.40
2017-09-01T06:34:02.137Z,14.50
2017-09-01T06:36:30.476Z,14.60
2017-09-01T06:38:58.786Z,14.50
2017-09-01T06:41:27.110Z,14.50
2017-09-01T06:43:55.421Z,14.50
2017-09-01T06:46:23.757Z,14.60
2017-09-01T06:48:52.065Z,14.60
2017-09-01T06:51:20.398Z,14.70
2017-09-01T06:53:48.735Z,14.70
2017-09-01T06:56:17.049Z,14.70
2017-09-01T06:58:45.376Z,14.80
2017-09-01T07:01:13.672Z,14.90
2017-09-01T07:03:41.999Z,14.90
2017-09-01T07:06:10.302Z,14.80
2017-09-01T07:08:38.617Z,14.90
2017-09-01T07:11:06.927Z,15.00
2017-09-01T07:13:35.257Z,14.90
2017-09-01T07:16:03.566Z,15.00
2017-09-01T07:18:31.893Z,15.10
2017-09-01T07:21:00.221Z,15.10
2017-09-01T07:23:28.541Z,15.10
2017-09-01T07:25:56.832Z,15.20
2017-09-01T07:28:25.174Z,15.30
2017-09-01T07:30:53.474Z,14.60
2017-09-01T07:33:21.781Z,14.60
2017-09-01T07:35:50.098Z,14.70
2017-09-01T07:38:18.396Z,15.00
2017-09-01T07:40:46.733Z,15.20
2017-09-01T07:43:15.033Z,15.40
2017-09-01T07:45:44.121Z,15.20
2017-09-01T07:48:12.421Z,15.20
2017-09-01T07:50:40.768Z,15.30
2017-09-01T07:53:09.108Z,15.30
2017-09-01T07:55:37.439Z,15.40
2017-09-01T07:58:05.737Z,15.50
2017-09-01T08:00:34.051Z,15.60
2017-09-01T08:03:02.349Z,15.70
2017-09-01T08:05:30.681Z,15.90
2017-09-01T08:07:58.981Z,16.00
2017-09-01T08:10:27.301Z,15.70
2017-09-01T08:12:55.609Z,15.90
2017-09-01T08:15:23.902Z,16.10
2017-09-01T08:17:52.217Z,16.20
2017-09-01T08:20:20.519Z,16.20
2017-09-01T08:22:48.837Z,16.10
2017-09-01T08:25:17.136Z,16.20
2017-09-01T08:27:45.465Z,16.20
2017-09-01T08:30:13.759Z,16.30
2017-09-01T08:32:42.081Z,16.40
2017-09-01T08:35:10.378Z,16.30
2017-09-01T08:37:38.701Z,16.30
2017-09-01T08:40:06.999Z,16.50
2017-09-01T08:42:35.330Z,16.50
2017-09-01T08:45:03.628Z,16.60
2017-09-01T08:47:31.940Z,16.50
2017-09-01T08:50:00.265Z,16.70
2017-09-01T08:52:28.568Z,16.70
2017-09-01T08:54:56.884Z,16.50
2017-09-01T08:57:25.190Z,16.20
2017-09-01T08:59:53.514Z,16.10
2017-09-01T09:02:21.835Z,15.90
2017-09-01T09:04:50.160Z,16.20
2017-09-01T09:07:18.461Z,15.90
2017-09-01T09:09:46.808Z,16.00
2017-09-01T09:12:15.118Z,16.20
2017-09-01T09:14:43.449Z,16.40
2017-09-01T09:20:11.997Z,16.60
2017-09-01T09:22:40.305Z,16.70
2017-09-01T09:25:08.607Z,16.80
2017-09-01T09:27:36.926Z,16.90
2017-09-01T09:30:05.238Z,17.00
2017-09-01T09:32:33.570Z,17.10
2017-09-01T09:35:01.864Z,17.00
2017-09-01T09:37:30.181Z,16.70
2017-09-01T09:39:58.479Z,16.80
2017-09-01T09:42:26.800Z,17.10
2017-09-01T09:44:55.100Z,16.90
2017-09-01T09:47:23.428Z,16.70
2017-09-01T09:49:51.725Z,16.60
2017-09-01T09:52:20.058Z,17.00
2017-09-01T09:54:48.358Z,17.10
2017-09-01T09:57:16.656Z,17.30
2017-09-01T09:59:44.991Z,17.30
2017-09-01T10:02:13.289Z,17.50
2017-09-01T10:04:41.613Z,17.70
2017-09-01T10:07:09.916Z,17.70
2017-09-01T10:09:38.239Z,17.70
2017-09-01T10:12:06.547Z,17.60
2017-09-01T10:14:34.895Z,17.70
2017-09-01T10:17:03.206Z,17.80
2017-09-01T10:19:31.580Z,17.70
2017-09-01T10:21:59.885Z,17.90
2017-09-01T10:24:28.217Z,17.90
2017-09-01T10:26:56.513Z,17.70
2017-09-01T10:29:24.861Z,18.00
2017-09-01T10:31:53.204Z,18.20
2017-09-01T10:34:21.501Z,18.00
2017-09-01T10:36:49.826Z,17.70
2017-09-01T10:39:18.125Z,17.80
2017-09-01T10:41:46.438Z,17.90
2017-09-01T10:44:14.749Z,17.90
2017-09-01T10:46:43.074Z,18.10
2017-09-01T10:49:18.270Z,17.60
2017-09-01T10:51:58.392Z,17.40
2017-09-01T10:54:38.372Z,17.70
2017-09-01T10:57:18.581Z,17.80
2017-09-01T10:59:46.880Z,17.80
2017-09-01T11:02:15.203Z,17.60
2017-09-01T11:04:43.502Z,17.80
2017-09-01T11:07:11.813Z,17.80
2017-09-01T11:09:40.122Z,17.80
2017-09-01T11:12:08.436Z,18.30
2017-09-01T11:14:36.747Z,18.50
2017-09-01T11:17:05.065Z,18.40
2017-09-01T11:19:39.010Z,17.80
2017-09-01T11:22:12.939Z,18.10
2017-09-01T11:24:41.241Z,18.30
2017-09-01T11:27:10.332Z,18.50
2017-09-01T11:29:38.645Z,18.50
2017-09-01T11:32:06.969Z,18.50
2017-09-01T11:34:35.270Z,18.00
2017-09-01T11:37:04.366Z,18.30
2017-09-01T11:39:32.677Z,18.60
2017-09-01T11:42:00.999Z,18.50
2017-09-01T11:44:29.318Z,18.20
2017-09-01T11:46:57.659Z,18.30
2017-09-01T11:49:25.960Z,18.50
2017-09-01T11:51:54.314Z,18.70
2017-09-01T11:54:22.647Z,18.90
2017-09-01T11:56:50.954Z,18.50
2017-09-01T11:59:19.297Z,18.40
2017-09-01T12:01:47.588Z,18.40
2017-09-01T12:04:15.953Z,18.70
2017-09-01T12:06:44.259Z,18.60
2017-09-01T12:09:12.579Z,18.90
2017-09-01T12:11:40.883Z,19.00
2017-09-01T12:14:09.212Z,18.80
2017-09-01T12:16:37.535Z,18.70
2017-09-01T12:19:05.852Z,18.90
2017-09-01T12:21:34.165Z,19.10
2017-09-01T12:24:02.488Z,19.60
2017-09-01T12:26:30.789Z,19.80
2017-09-01T12:28:59.086Z,19.50
2017-09-01T12:31:27.423Z,19.00
2017-09-01T12:33:55.725Z,18.80
2017-09-01T12:36:24.051Z,19.10
2017-09-01T12:38:52.349Z,19.40
2017-09-01T12:41:20.669Z,19.70
2017-09-01T12:43:49.849Z,19.80
2017-09-01T12:46:18.173Z,19.60
2017-09-01T12:48:46.478Z,19.50
2017-09-01T12:51:14.796Z,19.80
2017-09-01T12:53:43.101Z,19.70
2017-09-01T12:56:11.426Z,19.30
2017-09-01T12:58:39.755Z,19.60
2017-09-01T13:01:08.088Z,19.50
2017-09-01T13:03:36.391Z,20.00
2017-09-01T13:06:04.685Z,20.20
2017-09-01T13:08:33.013Z,20.70
2017-09-01T13:11:01.321Z,20.90
2017-09-01T13:13:29.650Z,20.90
2017-09-01T13:15:57.949Z,20.20
2017-09-01T13:18:26.286Z,19.80
2017-09-01T13:20:54.581Z,20.00
2017-09-01T13:23:22.904Z,20.70
2017-09-01T13:25:51.220Z,21.10
2017-09-01T13:28:20.302Z,20.00
2017-09-01T13:30:48.601Z,20.00
2017-09-01T13:33:16.942Z,19.90
2017-09-01T13:35:45.250Z,19.90
2017-09-01T13:38:13.558Z,19.90
2017-09-01T13:40:41.881Z,20.10
2017-09-01T13:43:10.184Z,19.90
2017-09-01T13:45:38.513Z,19.70
2017-09-01T13:48:06.825Z,20.00
2017-09-01T13:50:35.143Z,20.40
2017-09-01T13:53:03.452Z,20.60
2017-09-01T13:55:31.764Z,20.50
2017-09-01T13:58:00.065Z,20.80
2017-09-01T14:00:28.396Z,20.70
2017-09-01T14:02:56.712Z,20.40
2017-09-01T14:05:25.040Z,20.00
2017-09-01T14:07:53.345Z,20.00
2017-09-01T14:10:21.681Z,20.30
2017-09-01T14:12:49.993Z,20.00
2017-09-01T14:15:18.316Z,20.30
2017-09-01T14:17:46.616Z,20.70
2017-09-01T14:20:14.914Z,20.40
2017-09-01T14:22:43.242Z,20.60
2017-09-01T14:25:11.542Z,20.60
2017-09-01T14:27:39.872Z,20.40
2017-09-01T14:30:08.174Z,20.50
2017-09-01T14:32:36.494Z,20.30
2017-09-01T14:35:04.798Z,20.20
2017-09-01T14:37:33.129Z,20.10
2017-09-01T14:40:01.445Z,20.00
2017-09-01T14:42:29.776Z,19.90
2017-09-01T14:44:58.087Z,19.90
2017-09-01T14:47:26.421Z,20.30
2017-09-01T14:50:01.248Z,20.20
2017-09-01T14:52:29.588Z,20.10
2017-09-01T14:54:57.897Z,19.80
2017-09-01T14:57:26.201Z,19.90
2017-09-01T14:59:54.517Z,20.40
2017-09-01T15:02:22.824Z,20.50
2017-09-01T15:04:51.162Z,20.60
2017-09-01T15:07:19.461Z,20.50
2017-09-01T15:09:47.811Z,20.20
2017-09-01T15:12:16.113Z,20.10
2017-09-01T15:14:44.446Z,20.10
2017-09-01T15:17:12.754Z,20.50
2017-09-01T15:19:47.341Z,20.40
2017-09-01T15:22:15.642Z,20.20
2017-09-01T15:24:43.960Z,19.70
2017-09-01T15:27:12.271Z,19.50
2017-09-01T15:29:40.602Z,19.40
2017-09-01T15:32:08.901Z,19.50
2017-09-01T15:34:37.243Z,19.30
2017-09-01T15:37:05.537Z,19.70
2017-09-01T15:39:33.848Z,19.80
2017-09-01T15:42:02.178Z,19.80
2017-09-01T15:44:30.478Z,19.50
2017-09-01T15:46:58.805Z,19.10
2017-09-01T15:49:30.169Z,18.80
2017-09-01T15:51:58.498Z,19.00
2017-09-01T15:54:26.823Z,18.90
2017-09-01T15:56:55.154Z,18.90
2017-09-01T15:59:23.449Z,18.80
2017-09-01T16:01:51.764Z,18.90
2017-09-01T16:04:20.069Z,19.10
2017-09-01T16:06:48.427Z,19.20
2017-09-01T16:09:16.731Z,19.30
2017-09-01T16:11:45.032Z,19.30
2017-09-01T16:14:13.354Z,19.10
2017-09-01T16:16:41.653Z,19.40
2017-09-01T16:19:09.989Z,19.30
2017-09-01T16:21:38.303Z,19.40
2017-09-01T16:24:16.525Z,19.00
2017-09-01T16:26:44.834Z,18.90
2017-09-01T16:29:13.156Z,19.10
2017-09-01T16:31:41.462Z,19.30
2017-09-01T16:34:09.783Z,18.90
2017-09-01T16:36:38.095Z,18.70
2017-09-01T16:39:06.429Z,18.90
2017-09-01T16:41:34.746Z,19.20
2017-09-01T16:44:03.111Z,19.10
2017-09-01T16:49:28.817Z,19.10
2017-09-01T16:51:57.131Z,18.50
2017-09-01T16:54:25.442Z,18.50
2017-09-01T16:56:53.847Z,18.50
2017-09-01T16:59:22.175Z,18.60
2017-09-01T17:01:50.483Z,18.60
2017-09-01T17:04:18.815Z,18.50
2017-09-01T17:06:47.132Z,18.70
2017-09-01T17:09:15.429Z,18.70
2017-09-01T17:14:41.571Z,18.80
2017-09-01T17:17:09.926Z,18.90
2017-09-01T17:19:38.228Z,18.90
2017-09-01T17:22:06.544Z,19.00
2017-09-01T17:24:34.846Z,18.90
2017-09-01T17:27:03.772Z,18.90
2017-09-01T17:29:32.077Z,18.70
2017-09-01T17:32:00.409Z,18.20
2017-09-01T17:34:28.714Z,18.30
2017-09-01T17:36:57.046Z,18.50
2017-09-01T17:39:25.336Z,17.80
2017-09-01T17:41:53.661Z,17.60
2017-09-01T17:44:21.970Z,17.60
2017-09-01T17:46:50.293Z,17.70
2017-09-01T17:49:19.526Z,17.90
2017-09-01T17:51:47.855Z,18.10
2017-09-01T17:54:16.160Z,18.20
2017-09-01T17:56:44.466Z,18.30
2017-09-01T17:59:12.797Z,18.20
2017-09-01T18:01:41.102Z,18.10
2017-09-01T18:04:13.086Z,18.00
2017-09-01T18:06:41.387Z,17.80
2017-09-01T18:09:09.696Z,17.80
2017-09-01T18:11:37.992Z,17.60
2017-09-01T18:14:06.314Z,17.50
2017-09-01T18:16:34.617Z,17.50
2017-09-01T18:19:02.945Z,17.40
2017-09-01T18:21:31.246Z,17.50
2017-09-01T18:23:59.585Z,17.30
2017-09-01T18:26:27.892Z,17.20
2017-09-01T18:28:56.189Z,17.50
2017-09-01T18:31:25.285Z,17.00
2017-09-01T18:33:53.594Z,17.00
2017-09-01T18:36:21.909Z,16.80
2017-09-01T18:38:50.214Z,16.70
2017-09-01T18:41:18.533Z,16.40
2017-09-01T18:43:46.833Z,16.50
2017-09-01T18:46:15.168Z,16.30
2017-09-01T18:48:43.469Z,16.20
2017-09-01T18:51:11.784Z,15.80
2017-09-01T18:53:40.081Z,15.80
2017-09-01T18:56:08.424Z,16.00
2017-09-01T18:58:36.724Z,15.90
2017-09-01T19:01:05.029Z,15.60
2017-09-01T19:03:33.356Z,15.50
2017-09-01T19:06:01.652Z,15.50
2017-09-01T19:08:29.980Z,15.70
2017-09-01T19:10:58.278Z,15.60
2017-09-01T19:13:26.610Z,15.60
2017-09-01T19:15:54.936Z,15.40
2017-09-01T19:18:23.252Z,15.40
2017-09-01T19:20:51.565Z,15.40
2017-09-01T19:23:19.890Z,15.20
2017-09-01T19:25:48.201Z,15.10
2017-09-01T19:28:16.536Z,15.30
2017-09-01T19:30:44.839Z,15.30
2017-09-01T19:33:13.173Z,15.30
2017-09-01T19:35:41.481Z,15.00
2017-09-01T19:38:09.784Z,14.60
2017-09-01T19:40:38.109Z,14.50
2017-09-01T19:43:06.428Z,14.30
2017-09-01T19:45:34.748Z,14.40
2017-09-01T19:48:03.062Z,14.20
2017-09-01T19:50:31.458Z,14.50
2017-09-01T19:53:03.325Z,14.50
2017-09-01T19:55:32.416Z,14.40
2017-09-01T19:58:00.713Z,14.40
2017-09-01T20:00:29.046Z,14.20
2017-09-01T20:02:57.351Z,14.10
2017-09-01T20:05:25.678Z,14.30
2017-09-01T20:07:53.973Z,14.30
2017-09-01T20:10:22.323Z,14.20
2017-09-01T20:12:50.626Z,14.30
2017-09-01T20:15:18.932Z,14.00
2017-09-01T20:17:47.253Z,13.80
2017-09-01T20:20:15.562Z,13.70
2017-09-01T20:22:43.893Z,13.60
2017-09-01T20:25:12.956Z,13.90
2017-09-01T20:27:41.290Z,13.80
2017-09-01T20:30:09.598Z,13.90
2017-09-01T20:32:37.915Z,13.70
2017-09-01T20:35:16.177Z,13.60
2017-09-01T20:37:44.493Z,13.50
2017-09-01T20:40:12.794Z,13.40
2017-09-01T20:42:41.129Z,13.30
2017-09-01T20:45:09.421Z,13.40
2017-09-01T20:47:37.741Z,13.40
2017-09-01T20:50:06.046Z,13.20
2017-09-01T20:52:34.385Z,13.30
2017-09-01T20:55:02.685Z,13.30
2017-09-01T20:57:30.990Z,13.30
2017-09-01T20:59:59.303Z,13.10
2017-09-01T21:02:29.648Z,13.10
2017-09-01T21:04:58.009Z,12.90
2017-09-01T21:07:26.326Z,13.00
2017-09-01T21:09:54.645Z,12.90
2017-09-01T21:12:22.945Z,13.00
2017-09-01T21:14:51.266Z,13.00
2017-09-01T21:17:19.564Z,12.80
2017-09-01T21:19:47.893Z,12.70
2017-09-01T21:22:16.193Z,12.60
2017-09-01T21:24:44.501Z,12.70
2017-09-01T21:27:12.824Z,12.60
2017-09-01T21:29:41.177Z,12.40
2017-09-01T21:32:09.506Z,12.20
2017-09-01T21:34:37.827Z,12.20
2017-09-01T21:37:06.194Z,12.30
2017-09-01T21:39:34.502Z,12.20
2017-09-01T21:42:15.126Z,12.30
2017-09-01T21:44:43.429Z,12.30
2017-09-01T21:47:11.748Z,12.20
2017-09-01T21:49:40.043Z,12.40
2017-09-01T21:52:08.382Z,12.30
2017-09-01T21:54:36.684Z,12.30
2017-09-01T21:57:05.005Z,12.20
2017-09-01T21:59:33.306Z,12.10
2017-09-01T22:04:55.685Z,12.10
2017-09-01T22:07:24.008Z,12.10
2017-09-01T22:09:52.314Z,11.90
2017-09-01T22:12:20.622Z,11.90
2017-09-01T22:14:48.948Z,11.90
2017-09-01T22:17:17.258Z,11.90
2017-09-01T22:19:46.503Z,11.90
2017-09-01T22:22:14.814Z,11.90
2017-09-01T22:24:43.136Z,11.80
2017-09-01T22:27:11.449Z,11.80
2017-09-01T22:29:39.769Z,11.70
2017-09-01T22:32:08.988Z,11.50
2017-09-01T22:34:37.330Z,11.50
2017-09-01T22:37:05.638Z,11.70
2017-09-01T22:39:33.969Z,11.70
2017-09-01T22:42:02.294Z,11.50
2017-09-01T22:44:30.596Z,11.60
2017-09-01T22:46:58.917Z,11.50
2017-09-01T22:49:27.217Z,11.60
2017-09-01T22:51:55.545Z,11.60
2017-09-01T22:54:25.644Z,11.60
2017-09-01T22:56:53.968Z,11.40
2017-09-01T22:59:22.273Z,11.30
2017-09-01T23:01:50.602Z,11.10
2017-09-01T23:04:18.903Z,11.20
2017-09-01T23:06:47.264Z,11.20
2017-09-01T23:09:15.580Z,11.20
2017-09-01T23:11:43.918Z,11.00
2017-09-01T23:14:12.998Z,11.10
2017-09-01T23:16:41.305Z,11.10
2017-09-01T23:19:09.627Z,11.10
2017-09-01T23:21:37.937Z,11.10
2017-09-01T23:24:06.261Z,11.20
2017-09-01T23:26:34.560Z,11.10
2017-09-01T23:29:02.915Z,11.10
2017-09-01T23:31:31.213Z,10.90
2017-09-01T23:34:00.309Z,10.90
2017-09-01T23:36:47.551Z,10.90
2017-09-01T23:39:15.878Z,10.90
2017-09-01T23:41:44.270Z,10.80
2017-09-01T23:44:12.611Z,10.80
2017-09-01T23:46:40.917Z,11.00
2017-09-01T23:49:09.256Z,10.90
2017-09-01T23:51:37.547Z,10.90
2017-09-01T23:54:05.849Z,10.80
2017-09-01T23:56:34.191Z,10.70
2017-09-01T23:59:02.507Z,10.60
